sensor_id;sensor_type;location;lat;lon;timestamp;pressure;altitude;pressure_sealevel;temperature;humidity
59873;BME280;50750;51.636;4.948;2023-08-08T00:00:53;101610.55;;;20.41;56.77
59873;BME280;50750;51.636;4.948;2023-08-08T00:03:33;101606.82;;;20.41;56.60
59873;BME280;50750;51.636;4.948;2023-08-08T00:06:00;101609.11;;;20.41;56.74
59873;BME280;50750;51.636;4.948;2023-08-08T00:08:27;101608.77;;;20.41;56.71
59873;BME280;50750;51.636;4.948;2023-08-08T00:10:53;101606.48;;;20.40;56.79
59873;BME280;50750;51.636;4.948;2023-08-08T00:13:20;101606.34;;;20.40;56.62
59873;BME280;50750;51.636;4.948;2023-08-08T00:15:46;101606.83;;;20.41;56.61
59873;BME280;50750;51.636;4.948;2023-08-08T00:18:13;101608.63;;;20.40;56.68
59873;BME280;50750;51.636;4.948;2023-08-08T00:20:39;101603.67;;;20.40;56.67
59873;BME280;50750;51.636;4.948;2023-08-08T00:23:06;101600.33;;;20.40;56.72
59873;BME280;50750;51.636;4.948;2023-08-08T00:25:33;101599.80;;;20.39;56.73
59873;BME280;50750;51.636;4.948;2023-08-08T00:27:59;101599.79;;;20.40;56.81
59873;BME280;50750;51.636;4.948;2023-08-08T00:30:26;101604.61;;;20.39;56.73
59873;BME280;50750;51.636;4.948;2023-08-08T00:32:52;101605.33;;;20.39;56.69
59873;BME280;50750;51.636;4.948;2023-08-08T00:35:19;101603.75;;;20.39;56.59
59873;BME280;50750;51.636;4.948;2023-08-08T00:37:45;101604.98;;;20.39;56.71
59873;BME280;50750;51.636;4.948;2023-08-08T00:40:12;101609.09;;;20.39;56.78
59873;BME280;50750;51.636;4.948;2023-08-08T00:42:38;101611.75;;;20.39;56.64
59873;BME280;50750;51.636;4.948;2023-08-08T00:45:05;101613.19;;;20.38;56.92
59873;BME280;50750;51.636;4.948;2023-08-08T00:47:32;101606.45;;;20.38;56.69
59873;BME280;50750;51.636;4.948;2023-08-08T00:50:01;101599.36;;;20.38;56.77
59873;BME280;50750;51.636;4.948;2023-08-08T00:52:29;101589.55;;;20.38;56.71
59873;BME280;50750;51.636;4.948;2023-08-08T00:54:55;101577.67;;;20.38;56.85
59873;BME280;50750;51.636;4.948;2023-08-08T00:57:22;101574.45;;;20.38;56.57
59873;BME280;50750;51.636;4.948;2023-08-08T00:59:49;101576.96;;;20.38;56.76
59873;BME280;50750;51.636;4.948;2023-08-08T01:02:15;101581.41;;;20.38;56.79
59873;BME280;50750;51.636;4.948;2023-08-08T01:04:42;101587.84;;;20.37;56.83
59873;BME280;50750;51.636;4.948;2023-08-08T01:10:20;101582.52;;;20.37;56.90
59873;BME280;50750;51.636;4.948;2023-08-08T01:12:51;101581.81;;;20.37;56.66
59873;BME280;50750;51.636;4.948;2023-08-08T01:15:19;101580.22;;;20.37;56.77
59873;BME280;50750;51.636;4.948;2023-08-08T01:17:47;101581.61;;;20.37;56.71
59873;BME280;50750;51.636;4.948;2023-08-08T01:20:15;101577.02;;;20.36;56.80
59873;BME280;50750;51.636;4.948;2023-08-08T01:25:16;101578.80;;;20.36;56.79
59873;BME280;50750;51.636;4.948;2023-08-08T01:27:43;101572.78;;;20.36;56.66
59873;BME280;50750;51.636;4.948;2023-08-08T01:30:09;101568.66;;;20.36;56.95
59873;BME280;50750;51.636;4.948;2023-08-08T01:32:37;101563.52;;;20.36;56.87
59873;BME280;50750;51.636;4.948;2023-08-08T01:35:04;101563.52;;;20.36;56.82
59873;BME280;50750;51.636;4.948;2023-08-08T01:37:36;101565.84;;;20.36;56.79
59873;BME280;50750;51.636;4.948;2023-08-08T01:40:07;101559.44;;;20.36;56.79
59873;BME280;50750;51.636;4.948;2023-08-08T01:42:35;101558.55;;;20.36;56.92
59873;BME280;50750;51.636;4.948;2023-08-08T01:45:02;101563.21;;;20.35;56.83
59873;BME280;50750;51.636;4.948;2023-08-08T01:47:30;101561.83;;;20.35;56.85
59873;BME280;50750;51.636;4.948;2023-08-08T01:49:56;101561.88;;;20.34;56.87
59873;BME280;50750;51.636;4.948;2023-08-08T01:52:23;101574.30;;;20.34;56.94
59873;BME280;50750;51.636;4.948;2023-08-08T01:54:50;101568.80;;;20.34;56.90
59873;BME280;50750;51.636;4.948;2023-08-08T01:57:16;101570.06;;;20.34;56.94
59873;BME280;50750;51.636;4.948;2023-08-08T01:59:45;101566.34;;;20.34;56.95
59873;BME280;50750;51.636;4.948;2023-08-08T02:02:11;101567.41;;;20.34;56.84
59873;BME280;50750;51.636;4.948;2023-08-08T02:04:37;101564.55;;;20.34;56.95
59873;BME280;50750;51.636;4.948;2023-08-08T02:07:04;101564.56;;;20.34;56.85
59873;BME280;50750;51.636;4.948;2023-08-08T02:09:30;101566.14;;;20.34;56.93
59873;BME280;50750;51.636;4.948;2023-08-08T02:11:56;101562.78;;;20.34;56.95
59873;BME280;50750;51.636;4.948;2023-08-08T02:14:23;101563.86;;;20.34;57.06
59873;BME280;50750;51.636;4.948;2023-08-08T02:16:49;101555.67;;;20.34;56.94
59873;BME280;50750;51.636;4.948;2023-08-08T02:19:16;101539.33;;;20.33;56.90
59873;BME280;50750;51.636;4.948;2023-08-08T02:21:42;101535.06;;;20.33;56.98
59873;BME280;50750;51.636;4.948;2023-08-08T02:24:08;101533.27;;;20.33;56.86
59873;BME280;50750;51.636;4.948;2023-08-08T02:26:35;101527.61;;;20.33;56.88
59873;BME280;50750;51.636;4.948;2023-08-08T02:29:01;101534.03;;;20.33;57.00
59873;BME280;50750;51.636;4.948;2023-08-08T02:31:27;101529.59;;;20.32;56.92
59873;BME280;50750;51.636;4.948;2023-08-08T02:33:54;101524.80;;;20.33;57.06
59873;BME280;50750;51.636;4.948;2023-08-08T02:36:21;101527.83;;;20.33;57.03
59873;BME280;50750;51.636;4.948;2023-08-08T02:38:47;101529.98;;;20.32;56.94
59873;BME280;50750;51.636;4.948;2023-08-08T02:41:15;101529.62;;;20.32;56.89
59873;BME280;50750;51.636;4.948;2023-08-08T02:43:42;101526.80;;;20.32;56.98
59873;BME280;50750;51.636;4.948;2023-08-08T02:46:08;101531.62;;;20.32;57.01
59873;BME280;50750;51.636;4.948;2023-08-08T02:48:34;101531.45;;;20.31;57.10
59873;BME280;50750;51.636;4.948;2023-08-08T02:51:01;101527.16;;;20.32;57.04
59873;BME280;50750;51.636;4.948;2023-08-08T02:53:27;101522.73;;;20.31;57.04
59873;BME280;50750;51.636;4.948;2023-08-08T02:55:53;101525.58;;;20.31;56.95
59873;BME280;50750;51.636;4.948;2023-08-08T02:58:20;101528.42;;;20.31;57.01
59873;BME280;50750;51.636;4.948;2023-08-08T03:00:46;101528.80;;;20.31;56.96
59873;BME280;50750;51.636;4.948;2023-08-08T03:03:13;101527.75;;;20.30;57.01
59873;BME280;50750;51.636;4.948;2023-08-08T03:05:39;101528.80;;;20.31;57.10
59873;BME280;50750;51.636;4.948;2023-08-08T03:08:05;101525.27;;;20.30;57.09
59873;BME280;50750;51.636;4.948;2023-08-08T03:10:32;101526.18;;;20.30;57.07
59873;BME280;50750;51.636;4.948;2023-08-08T03:12:58;101524.58;;;20.30;57.01
59873;BME280;50750;51.636;4.948;2023-08-08T03:15:24;101524.95;;;20.30;57.00
59873;BME280;50750;51.636;4.948;2023-08-08T03:17:51;101526.89;;;20.30;57.06
59873;BME280;50750;51.636;4.948;2023-08-08T03:20:17;101525.69;;;20.29;57.04
59873;BME280;50750;51.636;4.948;2023-08-08T03:22:44;101526.56;;;20.30;57.05
59873;BME280;50750;51.636;4.948;2023-08-08T03:25:10;101525.86;;;20.29;56.99
59873;BME280;50750;51.636;4.948;2023-08-08T03:27:36;101526.76;;;20.29;57.00
59873;BME280;50750;51.636;4.948;2023-08-08T03:30:03;101523.38;;;20.29;57.00
59873;BME280;50750;51.636;4.948;2023-08-08T03:32:30;101521.14;;;20.28;56.97
59873;BME280;50750;51.636;4.948;2023-08-08T03:34:56;101519.34;;;20.29;56.82
59873;BME280;50750;51.636;4.948;2023-08-08T03:37:23;101522.16;;;20.29;57.08
59873;BME280;50750;51.636;4.948;2023-08-08T03:39:49;101517.92;;;20.28;56.95
59873;BME280;50750;51.636;4.948;2023-08-08T03:42:15;101516.66;;;20.29;57.04
59873;BME280;50750;51.636;4.948;2023-08-08T03:44:42;101517.23;;;20.28;57.10
59873;BME280;50750;51.636;4.948;2023-08-08T03:47:08;101510.46;;;20.28;56.93
59873;BME280;50750;51.636;4.948;2023-08-08T03:49:34;101511.02;;;20.28;57.01
59873;BME280;50750;51.636;4.948;2023-08-08T03:52:01;101509.77;;;20.28;56.99
59873;BME280;50750;51.636;4.948;2023-08-08T03:54:27;101509.79;;;20.27;57.10
59873;BME280;50750;51.636;4.948;2023-08-08T03:56:53;101514.58;;;20.28;56.99
59873;BME280;50750;51.636;4.948;2023-08-08T03:59:20;101511.20;;;20.28;57.11
59873;BME280;50750;51.636;4.948;2023-08-08T04:01:46;101514.77;;;20.27;57.03
59873;BME280;50750;51.636;4.948;2023-08-08T04:04:12;101511.94;;;20.27;57.05
59873;BME280;50750;51.636;4.948;2023-08-08T04:06:39;101509.13;;;20.27;57.23
59873;BME280;50750;51.636;4.948;2023-08-08T04:09:05;101510.19;;;20.27;57.24
59873;BME280;50750;51.636;4.948;2023-08-08T04:11:32;101513.39;;;20.27;57.03
59873;BME280;50750;51.636;4.948;2023-08-08T04:14:02;101514.12;;;20.27;57.12
59873;BME280;50750;51.636;4.948;2023-08-08T04:16:28;101511.13;;;20.26;57.09
59873;BME280;50750;51.636;4.948;2023-08-08T04:18:55;101509.16;;;20.26;57.25
59873;BME280;50750;51.636;4.948;2023-08-08T04:21:21;101506.89;;;20.26;57.25
59873;BME280;50750;51.636;4.948;2023-08-08T04:23:48;101505.46;;;20.26;57.13
59873;BME280;50750;51.636;4.948;2023-08-08T04:26:14;101506.35;;;20.26;56.93
59873;BME280;50750;51.636;4.948;2023-08-08T04:28:41;101508.85;;;20.25;57.02
59873;BME280;50750;51.636;4.948;2023-08-08T04:31:07;101510.80;;;20.26;57.22
59873;BME280;50750;51.636;4.948;2023-08-08T04:33:33;101505.86;;;20.25;57.06
59873;BME280;50750;51.636;4.948;2023-08-08T04:36:00;101507.29;;;20.25;56.99
59873;BME280;50750;51.636;4.948;2023-08-08T04:38:26;101503.71;;;20.25;57.01
59873;BME280;50750;51.636;4.948;2023-08-08T04:40:52;101502.16;;;20.24;57.06
59873;BME280;50750;51.636;4.948;2023-08-08T04:43:19;101506.43;;;20.24;57.22
59873;BME280;50750;51.636;4.948;2023-08-08T04:45:45;101506.98;;;20.24;57.10
59873;BME280;50750;51.636;4.948;2023-08-08T04:48:11;101508.95;;;20.24;57.04
59873;BME280;50750;51.636;4.948;2023-08-08T04:50:38;101508.78;;;20.24;57.06
59873;BME280;50750;51.636;4.948;2023-08-08T04:53:05;101504.50;;;20.24;57.12
59873;BME280;50750;51.636;4.948;2023-08-08T04:55:31;101508.27;;;20.23;56.96
59873;BME280;50750;51.636;4.948;2023-08-08T04:57:58;101512.90;;;20.23;56.96
59873;BME280;50750;51.636;4.948;2023-08-08T05:00:26;101513.43;;;20.23;57.22
59873;BME280;50750;51.636;4.948;2023-08-08T05:02:52;101513.27;;;20.23;57.03
59873;BME280;50750;51.636;4.948;2023-08-08T05:05:18;101511.14;;;20.23;57.08
59873;BME280;50750;51.636;4.948;2023-08-08T05:07:45;101512.58;;;20.23;56.96
59873;BME280;50750;51.636;4.948;2023-08-08T05:10:11;101517.23;;;20.22;57.11
59873;BME280;50750;51.636;4.948;2023-08-08T05:12:38;101513.27;;;20.23;57.06
59873;BME280;50750;51.636;4.948;2023-08-08T05:15:05;101508.71;;;20.22;57.08
59873;BME280;50750;51.636;4.948;2023-08-08T05:17:31;101506.21;;;20.22;57.07
59873;BME280;50750;51.636;4.948;2023-08-08T05:20:00;101511.23;;;20.22;57.08
59873;BME280;50750;51.636;4.948;2023-08-08T05:22:27;101511.06;;;20.21;57.12
59873;BME280;50750;51.636;4.948;2023-08-08T05:24:53;101513.75;;;20.21;57.05
59873;BME280;50750;51.636;4.948;2023-08-08T05:27:19;101514.09;;;20.21;57.03
59873;BME280;50750;51.636;4.948;2023-08-08T05:29:46;101516.59;;;20.21;57.15
59873;BME280;50750;51.636;4.948;2023-08-08T05:32:12;101516.29;;;20.20;57.04
59873;BME280;50750;51.636;4.948;2023-08-08T05:34:38;101521.25;;;20.21;57.13
59873;BME280;50750;51.636;4.948;2023-08-08T05:37:05;101518.73;;;20.21;57.16
59873;BME280;50750;51.636;4.948;2023-08-08T05:39:31;101516.98;;;20.20;57.08
59873;BME280;50750;51.636;4.948;2023-08-08T05:41:57;101515.59;;;20.20;57.13
59873;BME280;50750;51.636;4.948;2023-08-08T05:44:24;101514.19;;;20.19;57.10
59873;BME280;50750;51.636;4.948;2023-08-08T05:46:51;101517.73;;;20.20;57.27
59873;BME280;50750;51.636;4.948;2023-08-08T05:49:18;101518.83;;;20.19;57.20
59873;BME280;50750;51.636;4.948;2023-08-08T05:51:44;101521.31;;;20.19;57.15
59873;BME280;50750;51.636;4.948;2023-08-08T05:54:11;101520.79;;;20.19;57.19
59873;BME280;50750;51.636;4.948;2023-08-08T05:56:38;101521.86;;;20.19;57.19
59873;BME280;50750;51.636;4.948;2023-08-08T05:59:04;101522.95;;;20.19;57.06
59873;BME280;50750;51.636;4.948;2023-08-08T06:01:31;101526.11;;;20.19;56.98
59873;BME280;50750;51.636;4.948;2023-08-08T06:03:58;101525.80;;;20.19;57.15
59873;BME280;50750;51.636;4.948;2023-08-08T06:06:26;101529.70;;;20.19;57.20
59873;BME280;50750;51.636;4.948;2023-08-08T06:08:53;101532.73;;;20.19;57.21
59873;BME280;50750;51.636;4.948;2023-08-08T06:11:19;101532.03;;;20.19;57.23
59873;BME280;50750;51.636;4.948;2023-08-08T06:13:48;101527.74;;;20.19;57.01
59873;BME280;50750;51.636;4.948;2023-08-08T06:16:15;101527.91;;;20.19;57.08
59873;BME280;50750;51.636;4.948;2023-08-08T06:18:42;101532.20;;;20.19;57.09
59873;BME280;50750;51.636;4.948;2023-08-08T06:21:08;101534.86;;;20.19;57.18
59873;BME280;50750;51.636;4.948;2023-08-08T06:23:34;101534.34;;;20.19;57.07
59873;BME280;50750;51.636;4.948;2023-08-08T06:26:01;101530.45;;;20.18;57.13
59873;BME280;50750;51.636;4.948;2023-08-08T06:28:27;101534.17;;;20.19;57.12
59873;BME280;50750;51.636;4.948;2023-08-08T06:30:53;101534.69;;;20.19;57.21
59873;BME280;50750;51.636;4.948;2023-08-08T06:33:20;101539.33;;;20.19;57.18
59873;BME280;50750;51.636;4.948;2023-08-08T06:35:46;101541.66;;;20.18;57.17
59873;BME280;50750;51.636;4.948;2023-08-08T06:38:13;101547.52;;;20.18;57.21
59873;BME280;50750;51.636;4.948;2023-08-08T06:40:39;101547.73;;;20.18;57.11
59873;BME280;50750;51.636;4.948;2023-08-08T06:43:05;101542.76;;;20.18;57.11
59873;BME280;50750;51.636;4.948;2023-08-08T06:45:32;101545.02;;;20.18;57.09
59873;BME280;50750;51.636;4.948;2023-08-08T06:47:58;101540.09;;;20.18;57.25
59873;BME280;50750;51.636;4.948;2023-08-08T06:50:25;101542.05;;;20.18;57.15
59873;BME280;50750;51.636;4.948;2023-08-08T06:52:51;101542.42;;;20.18;57.10
59873;BME280;50750;51.636;4.948;2023-08-08T06:55:17;101544.54;;;20.17;57.24
59873;BME280;50750;51.636;4.948;2023-08-08T06:57:44;101544.02;;;20.17;57.28
59873;BME280;50750;51.636;4.948;2023-08-08T07:00:11;101544.19;;;20.18;57.12
59873;BME280;50750;51.636;4.948;2023-08-08T07:02:39;101542.79;;;20.17;57.15
59873;BME280;50750;51.636;4.948;2023-08-08T07:05:06;101545.44;;;20.17;57.15
59873;BME280;50750;51.636;4.948;2023-08-08T07:07:33;101544.73;;;20.18;57.14
59873;BME280;50750;51.636;4.948;2023-08-08T07:10:03;101543.83;;;20.18;57.36
59873;BME280;50750;51.636;4.948;2023-08-08T07:12:30;101540.65;;;20.17;57.21
59873;BME280;50750;51.636;4.948;2023-08-08T07:14:56;101540.48;;;20.17;57.30
59873;BME280;50750;51.636;4.948;2023-08-08T07:17:22;101543.13;;;20.18;57.20
59873;BME280;50750;51.636;4.948;2023-08-08T07:19:49;101542.26;;;20.17;57.23
59873;BME280;50750;51.636;4.948;2023-08-08T07:22:15;101538.33;;;20.18;57.05
59873;BME280;50750;51.636;4.948;2023-08-08T07:24:42;101536.37;;;20.17;57.21
59873;BME280;50750;51.636;4.948;2023-08-08T07:27:09;101531.22;;;20.17;57.23
59873;BME280;50750;51.636;4.948;2023-08-08T07:29:36;101530.13;;;20.18;57.17
59873;BME280;50750;51.636;4.948;2023-08-08T07:32:03;101534.77;;;20.17;57.28
59873;BME280;50750;51.636;4.948;2023-08-08T07:34:30;101537.08;;;20.18;57.13
59873;BME280;50750;51.636;4.948;2023-08-08T07:36:58;101538.15;;;20.18;57.20
59873;BME280;50750;51.636;4.948;2023-08-08T07:39:25;101536.71;;;20.18;57.20
59873;BME280;50750;51.636;4.948;2023-08-08T07:41:52;101534.75;;;20.18;57.30
59873;BME280;50750;51.636;4.948;2023-08-08T07:44:19;101538.83;;;20.18;57.12
59873;BME280;50750;51.636;4.948;2023-08-08T07:46:45;101534.36;;;20.19;57.10
59873;BME280;50750;51.636;4.948;2023-08-08T07:49:13;101535.25;;;20.18;57.27
59873;BME280;50750;51.636;4.948;2023-08-08T07:51:39;101535.94;;;20.19;57.25
59873;BME280;50750;51.636;4.948;2023-08-08T07:54:06;101537.89;;;20.19;57.19
59873;BME280;50750;51.636;4.948;2023-08-08T07:56:35;101531.69;;;20.19;57.36
59873;BME280;50750;51.636;4.948;2023-08-08T07:59:02;101532.91;;;20.19;57.02
59873;BME280;50750;51.636;4.948;2023-08-08T08:01:29;101534.53;;;20.18;57.20
59873;BME280;50750;51.636;4.948;2023-08-08T08:03:55;101537.54;;;20.19;57.19
59873;BME280;50750;51.636;4.948;2023-08-08T08:06:22;101535.00;;;20.16;57.11
59873;BME280;50750;51.636;4.948;2023-08-08T08:08:48;101537.54;;;20.19;57.18
59873;BME280;50750;51.636;4.948;2023-08-08T08:11:15;101530.39;;;20.19;57.16
59873;BME280;50750;51.636;4.948;2023-08-08T08:13:42;101532.33;;;20.20;57.21
59873;BME280;50750;51.636;4.948;2023-08-08T08:16:09;101535.69;;;20.20;57.04
59873;BME280;50750;51.636;4.948;2023-08-08T08:18:35;101533.91;;;20.20;57.34
59873;BME280;50750;51.636;4.948;2023-08-08T08:21:02;101534.61;;;20.20;57.11
59873;BME280;50750;51.636;4.948;2023-08-08T08:23:28;101534.63;;;20.20;57.05
59873;BME280;50750;51.636;4.948;2023-08-08T08:25:55;101533.57;;;20.19;57.16
59873;BME280;50750;51.636;4.948;2023-08-08T08:28:21;101542.09;;;20.20;57.16
59873;BME280;50750;51.636;4.948;2023-08-08T08:30:48;101539.94;;;20.20;56.99
59873;BME280;50750;51.636;4.948;2023-08-08T08:33:15;101537.99;;;20.20;57.10
59873;BME280;50750;51.636;4.948;2023-08-08T08:35:42;101540.30;;;20.20;57.12
59873;BME280;50750;51.636;4.948;2023-08-08T08:38:08;101540.82;;;20.20;57.09
59873;BME280;50750;51.636;4.948;2023-08-08T08:40:37;101541.71;;;20.20;57.11
59873;BME280;50750;51.636;4.948;2023-08-08T08:43:04;101545.60;;;20.21;57.15
59873;BME280;50750;51.636;4.948;2023-08-08T08:45:37;101544.39;;;20.20;57.13
59873;BME280;50750;51.636;4.948;2023-08-08T08:48:08;101542.95;;;20.20;57.21
59873;BME280;50750;51.636;4.948;2023-08-08T08:50:36;101539.59;;;20.20;57.07
59873;BME280;50750;51.636;4.948;2023-08-08T08:53:05;101542.75;;;20.21;57.13
59873;BME280;50750;51.636;4.948;2023-08-08T08:55:31;101547.02;;;20.21;57.10
59873;BME280;50750;51.636;4.948;2023-08-08T08:57:58;101544.17;;;20.21;57.20
59873;BME280;50750;51.636;4.948;2023-08-08T09:00:25;101547.36;;;20.21;57.21
59873;BME280;50750;51.636;4.948;2023-08-08T09:02:52;101548.59;;;20.21;57.01
59873;BME280;50750;51.636;4.948;2023-08-08T09:05:21;101550.37;;;20.21;56.95
59873;BME280;50750;51.636;4.948;2023-08-08T09:07:48;101551.42;;;20.22;57.06
59873;BME280;50750;51.636;4.948;2023-08-08T09:10:15;101551.58;;;20.22;57.05
59873;BME280;50750;51.636;4.948;2023-08-08T09:12:42;101549.27;;;20.22;57.24
59873;BME280;50750;51.636;4.948;2023-08-08T09:15:09;101551.20;;;20.22;57.04
59873;BME280;50750;51.636;4.948;2023-08-08T09:17:36;101559.38;;;20.22;57.10
59873;BME280;50750;51.636;4.948;2023-08-08T09:20:03;101561.83;;;20.23;57.03
59873;BME280;50750;51.636;4.948;2023-08-08T09:22:31;101554.71;;;20.23;57.03
59873;BME280;50750;51.636;4.948;2023-08-08T09:24:57;101557.91;;;20.23;57.02
59873;BME280;50750;51.636;4.948;2023-08-08T09:27:24;101554.34;;;20.23;57.13
59873;BME280;50750;51.636;4.948;2023-08-08T09:29:50;101551.84;;;20.23;57.20
59873;BME280;50750;51.636;4.948;2023-08-08T09:32:17;101554.51;;;20.23;56.97
59873;BME280;50750;51.636;4.948;2023-08-08T09:34:44;101552.02;;;20.23;57.13
59873;BME280;50750;51.636;4.948;2023-08-08T09:37:10;101551.10;;;20.24;57.09
59873;BME280;50750;51.636;4.948;2023-08-08T09:39:37;101554.30;;;20.24;57.10
59873;BME280;50750;51.636;4.948;2023-08-08T09:42:03;101551.98;;;20.24;57.13
59873;BME280;50750;51.636;4.948;2023-08-08T09:44:33;101548.94;;;20.24;57.17
59873;BME280;50750;51.636;4.948;2023-08-08T09:47:01;101548.89;;;20.25;56.88
59873;BME280;50750;51.636;4.948;2023-08-08T09:49:28;101552.30;;;20.25;57.15
59873;BME280;50750;51.636;4.948;2023-08-08T09:51:55;101549.63;;;20.25;57.09
59873;BME280;50750;51.636;4.948;2023-08-08T09:54:22;101554.06;;;20.25;57.00
59873;BME280;50750;51.636;4.948;2023-08-08T09:56:49;101553.38;;;20.24;56.95
59873;BME280;50750;51.636;4.948;2023-08-08T09:59:17;101550.48;;;20.25;57.09
59873;BME280;50750;51.636;4.948;2023-08-08T10:01:46;101550.84;;;20.25;56.95
59873;BME280;50750;51.636;4.948;2023-08-08T10:04:13;101550.30;;;20.25;57.15
59873;BME280;50750;51.636;4.948;2023-08-08T10:06:39;101554.19;;;20.26;57.05
59873;BME280;50750;51.636;4.948;2023-08-08T10:09:06;101551.70;;;20.25;57.04
59873;BME280;50750;51.636;4.948;2023-08-08T10:11:34;101556.46;;;20.26;57.06
59873;BME280;50750;51.636;4.948;2023-08-08T10:14:02;101559.66;;;20.26;56.93
59873;BME280;50750;51.636;4.948;2023-08-08T10:16:33;101561.07;;;20.27;57.03
59873;BME280;50750;51.636;4.948;2023-08-08T10:19:02;101560.19;;;20.26;56.92
59873;BME280;50750;51.636;4.948;2023-08-08T10:21:34;101562.63;;;20.27;57.01
59873;BME280;50750;51.636;4.948;2023-08-08T10:24:06;101558.33;;;20.27;56.86
59873;BME280;50750;51.636;4.948;2023-08-08T10:26:33;101557.46;;;20.27;56.88
59873;BME280;50750;51.636;4.948;2023-08-08T10:29:00;101552.09;;;20.28;56.95
59873;BME280;50750;51.636;4.948;2023-08-08T10:31:33;101555.27;;;20.28;56.85
59873;BME280;50750;51.636;4.948;2023-08-08T10:34:02;101558.99;;;20.29;56.96
59873;BME280;50750;51.636;4.948;2023-08-08T10:36:49;101555.27;;;20.28;56.87
59873;BME280;50750;51.636;4.948;2023-08-08T10:39:17;101560.27;;;20.28;56.83
59873;BME280;50750;51.636;4.948;2023-08-08T10:41:50;101563.63;;;20.28;56.83
59873;BME280;50750;51.636;4.948;2023-08-08T10:44:24;101559.49;;;20.29;56.92
59873;BME280;50750;51.636;4.948;2023-08-08T10:46:52;101560.20;;;20.29;56.91
59873;BME280;50750;51.636;4.948;2023-08-08T10:49:19;101553.60;;;20.29;56.91
59873;BME280;50750;51.636;4.948;2023-08-08T10:51:47;101551.05;;;20.31;56.94
59873;BME280;50750;51.636;4.948;2023-08-08T10:56:41;101551.40;;;20.31;56.77
59873;BME280;50750;51.636;4.948;2023-08-08T10:59:18;101556.20;;;20.31;56.73
59873;BME280;50750;51.636;4.948;2023-08-08T11:01:45;101552.97;;;20.32;56.79
59873;BME280;50750;51.636;4.948;2023-08-08T11:04:13;101554.77;;;20.31;56.87
59873;BME280;50750;51.636;4.948;2023-08-08T11:06:40;101554.72;;;20.32;56.60
59873;BME280;50750;51.636;4.948;2023-08-08T11:09:07;101554.02;;;20.32;56.69
59873;BME280;50750;51.636;4.948;2023-08-08T11:11:38;101557.54;;;20.33;56.59
59873;BME280;50750;51.636;4.948;2023-08-08T11:14:19;101549.68;;;20.33;56.65
59873;BME280;50750;51.636;4.948;2023-08-08T11:16:47;101547.91;;;20.33;56.64
59873;BME280;50750;51.636;4.948;2023-08-08T11:19:14;101542.19;;;20.33;56.54
59873;BME280;50750;51.636;4.948;2023-08-08T11:21:44;101544.13;;;20.33;56.51
59873;BME280;50750;51.636;4.948;2023-08-08T11:24:11;101540.92;;;20.34;56.41
59873;BME280;50750;51.636;4.948;2023-08-08T11:26:43;101548.37;;;20.34;56.30
59873;BME280;50750;51.636;4.948;2023-08-08T11:29:11;101547.30;;;20.34;56.23
59873;BME280;50750;51.636;4.948;2023-08-08T11:31:37;101548.18;;;20.34;56.40
59873;BME280;50750;51.636;4.948;2023-08-08T11:34:04;101547.26;;;20.35;56.27
59873;BME280;50750;51.636;4.948;2023-08-08T11:36:35;101544.18;;;20.36;56.31
59873;BME280;50750;51.636;4.948;2023-08-08T11:39:02;101544.69;;;20.36;56.31
59873;BME280;50750;51.636;4.948;2023-08-08T11:41:34;101542.00;;;20.36;56.16
59873;BME280;50750;51.636;4.948;2023-08-08T11:44:03;101545.38;;;20.36;56.13
59873;BME280;50750;51.636;4.948;2023-08-08T11:46:30;101552.66;;;20.37;56.16
59873;BME280;50750;51.636;4.948;2023-08-08T11:49:04;101555.84;;;20.37;56.13
59873;BME280;50750;51.636;4.948;2023-08-08T11:51:32;101556.35;;;20.37;55.95
59873;BME280;50750;51.636;4.948;2023-08-08T11:53:59;101551.13;;;20.38;56.04
59873;BME280;50750;51.636;4.948;2023-08-08T11:56:25;101549.52;;;20.38;55.96
59873;BME280;50750;51.636;4.948;2023-08-08T11:58:51;101550.73;;;20.39;55.88
59873;BME280;50750;51.636;4.948;2023-08-08T12:01:22;101550.02;;;20.39;55.69
59873;BME280;50750;51.636;4.948;2023-08-08T12:03:50;101546.79;;;20.40;56.03
59873;BME280;50750;51.636;4.948;2023-08-08T12:06:18;101546.02;;;20.40;56.01
59873;BME280;50750;51.636;4.948;2023-08-08T12:08:45;101549.54;;;20.41;55.91
59873;BME280;50750;51.636;4.948;2023-08-08T12:11:14;101541.17;;;20.41;55.91
59873;BME280;50750;51.636;4.948;2023-08-08T12:13:43;101543.99;;;20.41;55.92
59873;BME280;50750;51.636;4.948;2023-08-08T12:16:12;101542.37;;;20.42;55.77
59873;BME280;50750;51.636;4.948;2023-08-08T12:18:40;101543.93;;;20.42;55.75
59873;BME280;50750;51.636;4.948;2023-08-08T12:21:08;101541.44;;;20.43;55.78
59873;BME280;50750;51.636;4.948;2023-08-08T12:23:35;101540.00;;;20.43;55.65
59873;BME280;50750;51.636;4.948;2023-08-08T12:26:04;101537.78;;;20.44;55.81
59873;BME280;50750;51.636;4.948;2023-08-08T12:28:34;101537.05;;;20.44;55.85
59873;BME280;50750;51.636;4.948;2023-08-08T12:31:00;101533.83;;;20.45;55.82
59873;BME280;50750;51.636;4.948;2023-08-08T12:33:27;101535.05;;;20.45;55.70
59873;BME280;50750;51.636;4.948;2023-08-08T12:35:54;101531.82;;;20.45;55.84
59873;BME280;50750;51.636;4.948;2023-08-08T12:38:20;101534.27;;;20.46;55.94
59873;BME280;50750;51.636;4.948;2023-08-08T12:40:47;101533.52;;;20.47;55.84
59873;BME280;50750;51.636;4.948;2023-08-08T12:43:14;101534.20;;;20.47;55.86
59873;BME280;50750;51.636;4.948;2023-08-08T12:45:44;101532.53;;;20.48;55.71
59873;BME280;50750;51.636;4.948;2023-08-08T12:48:12;101534.86;;;20.48;55.90
59873;BME280;50750;51.636;4.948;2023-08-08T12:50:39;101538.36;;;20.49;55.88
59873;BME280;50750;51.636;4.948;2023-08-08T12:53:06;101534.96;;;20.50;55.81
59873;BME280;50750;51.636;4.948;2023-08-08T12:55:34;101531.02;;;20.50;55.79
59873;BME280;50750;51.636;4.948;2023-08-08T12:58:01;101526.52;;;20.51;55.97